sensor_id;sensor_type;location;lat;lon;timestamp;P1;durP1;ratioP1;P2;durP2;ratioP2
22030;SDS011;11179;52.106;21.024;2023-09-19T00:01:22;23.10;;;12.10;;
22030;SDS011;11179;52.106;21.024;2023-09-19T00:03:47;21.20;;;11.70;;
22030;SDS011;11179;52.106;21.024;2023-09-19T00:06:13;26.90;;;10.53;;
22030;SDS011;11179;52.106;21.024;2023-09-19T00:08:40;23.47;;;11.97;;
22030;SDS011;11179;52.106;21.024;2023-09-19T00:11:09;21.57;;;11.77;;
22030;SDS011;11179;52.106;21.024;2023-09-19T00:13:36;21.93;;;12.93;;
22030;SDS011;11179;52.106;21.024;2023-09-19T00:16:01;21.90;;;11.93;;
22030;SDS011;11179;52.106;21.024;2023-09-19T00:18:35;21.70;;;11.47;;
22030;SDS011;11179;52.106;21.024;2023-09-19T00:21:01;23.07;;;11.10;;
22030;SDS011;11179;52.106;21.024;2023-09-19T00:23:26;22.70;;;12.53;;
22030;SDS011;11179;52.106;21.024;2023-09-19T00:25:53;20.00;;;10.73;;
22030;SDS011;11179;52.106;21.024;2023-09-19T00:28:22;20.90;;;11.97;;
22030;SDS011;11179;52.106;21.024;2023-09-19T00:30:47;21.60;;;11.47;;
22030;SDS011;11179;52.106;21.024;2023-09-19T00:36:24;22.50;;;12.77;;
22030;SDS011;11179;52.106;21.024;2023-09-19T00:39:06;20.20;;;11.47;;
22030;SDS011;11179;52.106;21.024;2023-09-19T00:41:35;22.30;;;12.23;;
22030;SDS011;11179;52.106;21.024;2023-09-19T00:44:03;23.57;;;12.90;;
22030;SDS011;11179;52.106;21.024;2023-09-19T00:46:32;29.60;;;13.03;;
22030;SDS011;11179;52.106;21.024;2023-09-19T00:49:07;19.37;;;11.07;;
22030;SDS011;11179;52.106;21.024;2023-09-19T00:51:42;20.87;;;11.33;;
22030;SDS011;11179;52.106;21.024;2023-09-19T00:57:08;23.63;;;11.23;;
22030;SDS011;11179;52.106;21.024;2023-09-19T00:59:49;24.53;;;12.63;;
22030;SDS011;11179;52.106;21.024;2023-09-19T01:02:22;23.43;;;12.60;;
22030;SDS011;11179;52.106;21.024;2023-09-19T01:05:18;26.87;;;13.40;;
22030;SDS011;11179;52.106;21.024;2023-09-19T01:08:01;22.03;;;11.10;;
22030;SDS011;11179;52.106;21.024;2023-09-19T01:20:25;22.00;;;12.40;;
22030;SDS011;11179;52.106;21.024;2023-09-19T01:23:12;21.20;;;11.33;;
22030;SDS011;11179;52.106;21.024;2023-09-19T01:28:43;22.93;;;11.63;;
22030;SDS011;11179;52.106;21.024;2023-09-19T01:31:28;22.13;;;12.10;;
22030;SDS011;11179;52.106;21.024;2023-09-19T01:34:01;21.13;;;11.30;;
22030;SDS011;11179;52.106;21.024;2023-09-19T01:36:37;33.60;;;12.57;;
22030;SDS011;11179;52.106;21.024;2023-09-19T01:39:16;26.60;;;13.00;;
22030;SDS011;11179;52.106;21.024;2023-09-19T01:52:20;23.20;;;12.53;;
22030;SDS011;11179;52.106;21.024;2023-09-19T01:55:13;22.00;;;11.53;;
22030;SDS011;11179;52.106;21.024;2023-09-19T01:58:12;23.23;;;12.10;;
22030;SDS011;11179;52.106;21.024;2023-09-19T02:00:49;21.53;;;11.63;;
22030;SDS011;11179;52.106;21.024;2023-09-19T02:03:36;34.03;;;11.43;;
22030;SDS011;11179;52.106;21.024;2023-09-19T02:06:25;24.67;;;11.70;;
22030;SDS011;11179;52.106;21.024;2023-09-19T02:09:00;34.47;;;12.67;;
22030;SDS011;11179;52.106;21.024;2023-09-19T02:11:25;22.50;;;11.80;;
22030;SDS011;11179;52.106;21.024;2023-09-19T02:13:59;24.50;;;10.90;;
22030;SDS011;11179;52.106;21.024;2023-09-19T02:16:44;22.40;;;12.10;;
22030;SDS011;11179;52.106;21.024;2023-09-19T02:19:21;21.50;;;11.60;;
22030;SDS011;11179;52.106;21.024;2023-09-19T02:21:49;22.97;;;12.27;;
22030;SDS011;11179;52.106;21.024;2023-09-19T02:24:40;25.10;;;11.90;;
22030;SDS011;11179;52.106;21.024;2023-09-19T02:27:08;25.17;;;12.53;;
22030;SDS011;11179;52.106;21.024;2023-09-19T02:29:45;24.70;;;13.00;;
22030;SDS011;11179;52.106;21.024;2023-09-19T02:32:17;24.53;;;11.67;;
22030;SDS011;11179;52.106;21.024;2023-09-19T02:34:46;22.47;;;12.60;;
22030;SDS011;11179;52.106;21.024;2023-09-19T02:37:18;24.20;;;12.60;;
22030;SDS011;11179;52.106;21.024;2023-09-19T02:40:03;26.50;;;12.33;;
22030;SDS011;11179;52.106;21.024;2023-09-19T02:42:49;22.40;;;12.80;;
22030;SDS011;11179;52.106;21.024;2023-09-19T02:45:27;24.93;;;11.40;;
22030;SDS011;11179;52.106;21.024;2023-09-19T02:48:03;20.83;;;11.97;;
22030;SDS011;11179;52.106;21.024;2023-09-19T02:50:39;21.97;;;11.50;;
22030;SDS011;11179;52.106;21.024;2023-09-19T02:53:09;26.53;;;12.30;;
22030;SDS011;11179;52.106;21.024;2023-09-19T02:55:41;26.20;;;12.30;;
22030;SDS011;11179;52.106;21.024;2023-09-19T02:58:09;25.03;;;13.10;;
22030;SDS011;11179;52.106;21.024;2023-09-19T03:00:50;21.63;;;12.90;;
22030;SDS011;11179;52.106;21.024;2023-09-19T03:03:33;22.87;;;12.50;;
22030;SDS011;11179;52.106;21.024;2023-09-19T03:06:01;21.80;;;11.97;;
22030;SDS011;11179;52.106;21.024;2023-09-19T03:08:29;25.10;;;12.00;;
22030;SDS011;11179;52.106;21.024;2023-09-19T03:11:09;24.13;;;12.37;;
22030;SDS011;11179;52.106;21.024;2023-09-19T03:19:40;24.50;;;13.30;;
22030;SDS011;11179;52.106;21.024;2023-09-19T03:22:41;24.10;;;12.33;;
22030;SDS011;11179;52.106;21.024;2023-09-19T03:25:18;25.93;;;13.00;;
22030;SDS011;11179;52.106;21.024;2023-09-19T03:28:06;22.13;;;12.20;;
22030;SDS011;11179;52.106;21.024;2023-09-19T03:30:32;25.37;;;12.97;;
22030;SDS011;11179;52.106;21.024;2023-09-19T03:32:58;24.40;;;13.10;;
22030;SDS011;11179;52.106;21.024;2023-09-19T03:35:24;21.20;;;12.33;;
22030;SDS011;11179;52.106;21.024;2023-09-19T03:37:49;26.40;;;12.47;;
22030;SDS011;11179;52.106;21.024;2023-09-19T03:41:02;26.70;;;13.40;;
22030;SDS011;11179;52.106;21.024;2023-09-19T03:46:44;23.70;;;12.00;;
22030;SDS011;11179;52.106;21.024;2023-09-19T03:49:15;25.37;;;13.33;;
22030;SDS011;11179;52.106;21.024;2023-09-19T03:55:17;25.30;;;12.47;;
22030;SDS011;11179;52.106;21.024;2023-09-19T03:57:52;23.30;;;12.93;;
22030;SDS011;11179;52.106;21.024;2023-09-19T04:00:23;24.60;;;12.57;;
22030;SDS011;11179;52.106;21.024;2023-09-19T04:03:07;28.27;;;13.83;;
22030;SDS011;11179;52.106;21.024;2023-09-19T04:08:59;24.33;;;12.50;;
22030;SDS011;11179;52.106;21.024;2023-09-19T04:14:25;26.70;;;13.33;;
22030;SDS011;11179;52.106;21.024;2023-09-19T04:17:04;20.27;;;11.60;;
22030;SDS011;11179;52.106;21.024;2023-09-19T04:25:42;28.10;;;13.60;;
22030;SDS011;11179;52.106;21.024;2023-09-19T04:28:14;21.90;;;11.43;;
22030;SDS011;11179;52.106;21.024;2023-09-19T04:30:43;21.97;;;11.77;;
22030;SDS011;11179;52.106;21.024;2023-09-19T04:33:12;26.37;;;12.40;;
22030;SDS011;11179;52.106;21.024;2023-09-19T04:35:42;23.83;;;12.20;;
22030;SDS011;11179;52.106;21.024;2023-09-19T04:41:45;28.10;;;13.27;;
22030;SDS011;11179;52.106;21.024;2023-09-19T04:44:36;22.60;;;11.30;;
22030;SDS011;11179;52.106;21.024;2023-09-19T04:47:16;27.67;;;13.20;;
22030;SDS011;11179;52.106;21.024;2023-09-19T04:49:57;23.40;;;11.27;;
22030;SDS011;11179;52.106;21.024;2023-09-19T04:52:31;32.80;;;13.37;;
22030;SDS011;11179;52.106;21.024;2023-09-19T04:55:09;23.03;;;12.07;;
22030;SDS011;11179;52.106;21.024;2023-09-19T04:58:01;25.10;;;12.33;;
22030;SDS011;11179;52.106;21.024;2023-09-19T05:03:41;29.93;;;12.50;;
22030;SDS011;11179;52.106;21.024;2023-09-19T05:06:10;30.80;;;12.47;;
22030;SDS011;11179;52.106;21.024;2023-09-19T05:08:40;39.13;;;12.90;;
22030;SDS011;11179;52.106;21.024;2023-09-19T05:11:10;37.93;;;12.90;;
22030;SDS011;11179;52.106;21.024;2023-09-19T05:13:48;30.80;;;12.63;;
22030;SDS011;11179;52.106;21.024;2023-09-19T05:16:18;21.80;;;11.20;;
22030;SDS011;11179;52.106;21.024;2023-09-19T05:18:44;24.43;;;11.97;;
22030;SDS011;11179;52.106;21.024;2023-09-19T05:21:09;22.10;;;10.90;;
22030;SDS011;11179;52.106;21.024;2023-09-19T05:23:34;30.40;;;13.23;;
22030;SDS011;11179;52.106;21.024;2023-09-19T05:25:59;29.73;;;11.37;;
22030;SDS011;11179;52.106;21.024;2023-09-19T05:34:31;36.13;;;12.40;;
22030;SDS011;11179;52.106;21.024;2023-09-19T05:37:06;22.27;;;11.47;;
22030;SDS011;11179;52.106;21.024;2023-09-19T05:45:44;40.37;;;12.50;;
22030;SDS011;11179;52.106;21.024;2023-09-19T05:48:29;31.40;;;13.13;;
22030;SDS011;11179;52.106;21.024;2023-09-19T05:51:09;27.60;;;14.07;;
22030;SDS011;11179;52.106;21.024;2023-09-19T05:53:44;33.33;;;12.97;;
22030;SDS011;11179;52.106;21.024;2023-09-19T05:56:13;24.57;;;12.63;;
22030;SDS011;11179;52.106;21.024;2023-09-19T05:58:56;27.17;;;12.33;;
22030;SDS011;11179;52.106;21.024;2023-09-19T06:01:34;25.40;;;11.73;;
22030;SDS011;11179;52.106;21.024;2023-09-19T06:04:18;23.80;;;11.17;;
22030;SDS011;11179;52.106;21.024;2023-09-19T06:07:05;36.43;;;13.37;;
22030;SDS011;11179;52.106;21.024;2023-09-19T06:09:34;42.93;;;13.27;;
22030;SDS011;11179;52.106;21.024;2023-09-19T06:12:14;25.47;;;12.67;;
22030;SDS011;11179;52.106;21.024;2023-09-19T06:14:52;33.20;;;11.40;;
22030;SDS011;11179;52.106;21.024;2023-09-19T06:17:58;24.67;;;11.80;;
22030;SDS011;11179;52.106;21.024;2023-09-19T06:20:48;23.60;;;11.57;;
22030;SDS011;11179;52.106;21.024;2023-09-19T06:23:16;33.33;;;11.40;;
22030;SDS011;11179;52.106;21.024;2023-09-19T06:25:42;19.80;;;9.70;;
22030;SDS011;11179;52.106;21.024;2023-09-19T06:28:08;22.60;;;11.37;;
22030;SDS011;11179;52.106;21.024;2023-09-19T06:30:37;24.20;;;12.93;;
22030;SDS011;11179;52.106;21.024;2023-09-19T06:33:05;31.90;;;12.70;;
22030;SDS011;11179;52.106;21.024;2023-09-19T06:35:31;28.20;;;12.17;;
22030;SDS011;11179;52.106;21.024;2023-09-19T06:37:58;29.47;;;11.90;;
22030;SDS011;11179;52.106;21.024;2023-09-19T06:40:23;22.10;;;11.43;;
22030;SDS011;11179;52.106;21.024;2023-09-19T06:42:52;22.63;;;11.53;;
22030;SDS011;11179;52.106;21.024;2023-09-19T06:45:22;26.37;;;10.77;;
22030;SDS011;11179;52.106;21.024;2023-09-19T06:48:04;22.33;;;10.30;;
22030;SDS011;11179;52.106;21.024;2023-09-19T06:50:53;20.43;;;10.60;;
22030;SDS011;11179;52.106;21.024;2023-09-19T06:53:33;20.73;;;11.20;;
22030;SDS011;11179;52.106;21.024;2023-09-19T06:56:21;23.83;;;10.60;;
22030;SDS011;11179;52.106;21.024;2023-09-19T06:59:02;24.63;;;10.23;;
22030;SDS011;11179;52.106;21.024;2023-09-19T07:01:27;19.97;;;10.10;;
22030;SDS011;11179;52.106;21.024;2023-09-19T07:04:00;20.97;;;10.53;;
22030;SDS011;11179;52.106;21.024;2023-09-19T07:06:26;26.53;;;11.00;;
22030;SDS011;11179;52.106;21.024;2023-09-19T07:08:55;18.63;;;10.63;;
22030;SDS011;11179;52.106;21.024;2023-09-19T07:12:06;22.33;;;10.50;;
22030;SDS011;11179;52.106;21.024;2023-09-19T07:20:45;19.80;;;9.80;;
22030;SDS011;11179;52.106;21.024;2023-09-19T07:23:38;20.23;;;10.20;;
22030;SDS011;11179;52.106;21.024;2023-09-19T07:26:06;24.53;;;9.70;;
22030;SDS011;11179;52.106;21.024;2023-09-19T07:29:09;26.63;;;10.23;;
22030;SDS011;11179;52.106;21.024;2023-09-19T07:37:11;27.03;;;10.67;;
22030;SDS011;11179;52.106;21.024;2023-09-19T07:39:45;19.57;;;10.20;;
22030;SDS011;11179;52.106;21.024;2023-09-19T07:42:44;17.50;;;10.20;;
22030;SDS011;11179;52.106;21.024;2023-09-19T07:45:16;21.93;;;11.07;;
22030;SDS011;11179;52.106;21.024;2023-09-19T07:47:47;16.67;;;9.27;;
22030;SDS011;11179;52.106;21.024;2023-09-19T07:50:22;19.67;;;10.93;;
22030;SDS011;11179;52.106;21.024;2023-09-19T07:53:01;22.70;;;10.00;;
22030;SDS011;11179;52.106;21.024;2023-09-19T07:55:34;21.20;;;11.43;;
22030;SDS011;11179;52.106;21.024;2023-09-19T07:58:04;25.20;;;10.97;;
22030;SDS011;11179;52.106;21.024;2023-09-19T08:00:34;19.90;;;9.90;;
22030;SDS011;11179;52.106;21.024;2023-09-19T08:03:30;17.90;;;10.37;;
22030;SDS011;11179;52.106;21.024;2023-09-19T08:06:26;25.83;;;12.17;;
22030;SDS011;11179;52.106;21.024;2023-09-19T08:09:27;17.73;;;10.50;;
22030;SDS011;11179;52.106;21.024;2023-09-19T08:15:25;26.23;;;12.10;;
22030;SDS011;11179;52.106;21.024;2023-09-19T08:17:50;26.40;;;13.20;;
22030;SDS011;11179;52.106;21.024;2023-09-19T08:20:34;27.57;;;13.60;;
22030;SDS011;11179;52.106;21.024;2023-09-19T08:23:23;19.50;;;11.93;;
22030;SDS011;11179;52.106;21.024;2023-09-19T08:26:29;22.97;;;13.00;;
22030;SDS011;11179;52.106;21.024;2023-09-19T08:29:13;24.87;;;13.50;;
22030;SDS011;11179;52.106;21.024;2023-09-19T08:32:08;20.87;;;12.40;;
22030;SDS011;11179;52.106;21.024;2023-09-19T08:34:46;35.33;;;12.80;;
22030;SDS011;11179;52.106;21.024;2023-09-19T08:40:26;26.63;;;13.37;;
22030;SDS011;11179;52.106;21.024;2023-09-19T08:43:14;22.13;;;12.40;;
22030;SDS011;11179;52.106;21.024;2023-09-19T08:52:09;24.00;;;11.73;;
22030;SDS011;11179;52.106;21.024;2023-09-19T08:54:51;21.00;;;11.90;;
22030;SDS011;11179;52.106;21.024;2023-09-19T08:57:41;22.03;;;12.40;;
22030;SDS011;11179;52.106;21.024;2023-09-19T09:00:27;22.40;;;13.20;;
22030;SDS011;11179;52.106;21.024;2023-09-19T09:03:08;24.40;;;12.20;;
22030;SDS011;11179;52.106;21.024;2023-09-19T09:05:55;21.90;;;12.77;;
22030;SDS011;11179;52.106;21.024;2023-09-19T09:08:40;23.40;;;13.73;;
22030;SDS011;11179;52.106;21.024;2023-09-19T09:14:23;23.10;;;13.87;;
22030;SDS011;11179;52.106;21.024;2023-09-19T09:16:50;21.37;;;12.13;;
22030;SDS011;11179;52.106;21.024;2023-09-19T09:19:20;23.00;;;12.83;;
22030;SDS011;11179;52.106;21.024;2023-09-19T09:21:50;19.03;;;11.33;;
22030;SDS011;11179;52.106;21.024;2023-09-19T09:27:26;21.10;;;12.13;;
22030;SDS011;11179;52.106;21.024;2023-09-19T09:29:59;20.53;;;11.00;;
22030;SDS011;11179;52.106;21.024;2023-09-19T09:32:32;16.57;;;9.27;;
22030;SDS011;11179;52.106;21.024;2023-09-19T09:35:00;17.20;;;9.40;;
22030;SDS011;11179;52.106;21.024;2023-09-19T09:37:29;19.60;;;12.10;;
22030;SDS011;11179;52.106;21.024;2023-09-19T09:40:04;18.07;;;11.20;;
22030;SDS011;11179;52.106;21.024;2023-09-19T10:01:03;26.40;;;10.77;;
22030;SDS011;11179;52.106;21.024;2023-09-19T10:03:37;21.47;;;10.90;;
22030;SDS011;11179;52.106;21.024;2023-09-19T10:06:09;24.73;;;10.20;;
22030;SDS011;11179;52.106;21.024;2023-09-19T10:09:09;20.30;;;10.53;;
22030;SDS011;11179;52.106;21.024;2023-09-19T10:11:48;23.50;;;10.60;;
22030;SDS011;11179;52.106;21.024;2023-09-19T10:14:32;18.67;;;10.00;;
22030;SDS011;11179;52.106;21.024;2023-09-19T10:17:04;21.27;;;10.57;;
22030;SDS011;11179;52.106;21.024;2023-09-19T10:30:24;21.33;;;11.73;;
22030;SDS011;11179;52.106;21.024;2023-09-19T10:35:46;23.00;;;10.73;;
22030;SDS011;11179;52.106;21.024;2023-09-19T10:38:23;31.13;;;11.10;;
22030;SDS011;11179;52.106;21.024;2023-09-19T10:40:56;24.07;;;10.83;;
22030;SDS011;11179;52.106;21.024;2023-09-19T10:43:34;21.77;;;10.50;;
22030;SDS011;11179;52.106;21.024;2023-09-19T10:46:09;17.43;;;8.83;;
22030;SDS011;11179;52.106;21.024;2023-09-19T10:48:44;16.50;;;9.70;;
22030;SDS011;11179;52.106;21.024;2023-09-19T10:51:18;18.43;;;9.10;;
22030;SDS011;11179;52.106;21.024;2023-09-19T10:56:38;18.07;;;9.23;;
22030;SDS011;11179;52.106;21.024;2023-09-19T10:59:14;14.80;;;7.73;;
22030;SDS011;11179;52.106;21.024;2023-09-19T11:01:53;14.13;;;8.33;;
22030;SDS011;11179;52.106;21.024;2023-09-19T11:04:33;16.27;;;7.47;;
22030;SDS011;11179;52.106;21.024;2023-09-19T11:07:13;13.63;;;7.80;;
22030;SDS011;11179;52.106;21.024;2023-09-19T11:09:49;15.70;;;8.00;;
22030;SDS011;11179;52.106;21.024;2023-09-19T11:15:11;18.97;;;8.07;;
22030;SDS011;11179;52.106;21.024;2023-09-19T11:27:08;17.43;;;7.00;;
22030;SDS011;11179;52.106;21.024;2023-09-19T11:29:43;21.60;;;7.10;;
22030;SDS011;11179;52.106;21.024;2023-09-19T11:32:14;19.40;;;8.13;;
22030;SDS011;11179;52.106;21.024;2023-09-19T11:34:42;15.73;;;7.50;;
22030;SDS011;11179;52.106;21.024;2023-09-19T11:40:05;14.30;;;7.00;;
22030;SDS011;11179;52.106;21.024;2023-09-19T11:42:45;13.03;;;6.40;;
22030;SDS011;11179;52.106;21.024;2023-09-19T11:46:00;13.47;;;5.20;;
22030;SDS011;11179;52.106;21.024;2023-09-19T11:48:23;13.50;;;6.23;;
22030;SDS011;11179;52.106;21.024;2023-09-19T11:50:55;13.93;;;5.40;;
22030;SDS011;11179;52.106;21.024;2023-09-19T11:53:30;17.40;;;7.40;;
22030;SDS011;11179;52.106;21.024;2023-09-19T11:55:58;13.50;;;6.13;;
22030;SDS011;11179;52.106;21.024;2023-09-19T11:58:29;15.07;;;5.97;;
22030;SDS011;11179;52.106;21.024;2023-09-19T12:00:56;10.60;;;4.40;;
22030;SDS011;11179;52.106;21.024;2023-09-19T12:03:54;10.60;;;3.43;;
22030;SDS011;11179;52.106;21.024;2023-09-19T12:06:25;9.33;;;4.13;;
22030;SDS011;11179;52.106;21.024;2023-09-19T12:08:54;11.07;;;4.00;;
22030;SDS011;11179;52.106;21.024;2023-09-19T12:11:27;11.60;;;5.23;;
22030;SDS011;11179;52.106;21.024;2023-09-19T12:14:01;11.50;;;4.10;;
22030;SDS011;11179;52.106;21.024;2023-09-19T12:20:05;10.90;;;4.20;;
22030;SDS011;11179;52.106;21.024;2023-09-19T12:22:42;12.80;;;4.37;;
22030;SDS011;11179;52.106;21.024;2023-09-19T12:25:14;13.63;;;4.63;;
22030;SDS011;11179;52.106;21.024;2023-09-19T12:28:01;10.57;;;4.67;;
22030;SDS011;11179;52.106;21.024;2023-09-19T12:31:20;13.40;;;4.67;;
22030;SDS011;11179;52.106;21.024;2023-09-19T12:34:15;12.40;;;5.17;;
22030;SDS011;11179;52.106;21.024;2023-09-19T12:47:28;11.33;;;5.23;;
22030;SDS011;11179;52.106;21.024;2023-09-19T12:50:16;13.27;;;5.20;;
22030;SDS011;11179;52.106;21.024;2023-09-19T12:52:55;10.00;;;5.67;;
22030;SDS011;11179;52.106;21.024;2023-09-19T12:55:28;12.23;;;6.13;;
22030;SDS011;11179;52.106;21.024;2023-09-19T12:58:19;14.03;;;5.77;;
22030;SDS011;11179;52.106;21.024;2023-09-19T13:00:51;11.77;;;5.47;;
22030;SDS011;11179;52.106;21.024;2023-09-19T13:06:15;14.60;;;5.30;;
22030;SDS011;11179;52.106;21.024;2023-09-19T13:09:16;11.47;;;5.23;;
22030;SDS011;11179;52.106;21.024;2023-09-19T13:11:56;10.90;;;5.73;;
22030;SDS011;11179;52.106;21.024;2023-09-19T13:14:37;10.90;;;5.87;;
22030;SDS011;11179;52.106;21.024;2023-09-19T13:17:22;12.83;;;6.00;;
22030;SDS011;11179;52.106;21.024;2023-09-19T13:19:49;12.43;;;4.97;;
22030;SDS011;11179;52.106;21.024;2023-09-19T13:25:08;18.30;;;6.00;;
22030;SDS011;11179;52.106;21.024;2023-09-19T13:27:39;9.53;;;5.03;;
22030;SDS011;11179;52.106;21.024;2023-09-19T13:30:06;12.63;;;6.23;;
22030;SDS011;11179;52.106;21.024;2023-09-19T13:32:32;12.00;;;6.00;;
22030;SDS011;11179;52.106;21.024;2023-09-19T13:35:09;12.60;;;6.27;;
22030;SDS011;11179;52.106;21.024;2023-09-19T13:37:42;15.40;;;6.23;;
22030;SDS011;11179;52.106;21.024;2023-09-19T13:40:16;13.83;;;6.07;;
22030;SDS011;11179;52.106;21.024;2023-09-19T13:42:48;11.70;;;5.20;;
22030;SDS011;11179;52.106;21.024;2023-09-19T13:45:18;12.10;;;6.83;;
22030;SDS011;11179;52.106;21.024;2023-09-19T13:47:47;12.20;;;6.17;;
22030;SDS011;11179;52.106;21.024;2023-09-19T13:50:14;14.00;;;6.90;;
22030;SDS011;11179;52.106;21.024;2023-09-19T13:52:40;11.87;;;6.00;;
22030;SDS011;11179;52.106;21.024;2023-09-19T13:55:10;17.80;;;6.33;;
22030;SDS011;11179;52.106;21.024;2023-09-19T13:57:40;14.50;;;7.10;;
22030;SDS011;11179;52.106;21.024;2023-09-19T14:00:07;13.90;;;7.10;;
22030;SDS011;11179;52.106;21.024;2023-09-19T14:02:35;21.87;;;8.10;;
22030;SDS011;11179;52.106;21.024;2023-09-19T14:05:01;12.43;;;7.33;;
22030;SDS011;11179;52.106;21.024;2023-09-19T14:07:27;14.20;;;7.60;;
22030;SDS011;11179;52.106;21.024;2023-09-19T14:09:56;21.20;;;8.10;;
22030;SDS011;11179;52.106;21.024;2023-09-19T14:12:25;13.07;;;7.67;;
22030;SDS011;11179;52.106;21.024;2023-09-19T14:14:52;13.07;;;8.13;;
22030;SDS011;11179;52.106;21.024;2023-09-19T14:17:20;17.50;;;9.90;;
22030;SDS011;11179;52.106;21.024;2023-09-19T14:19:46;12.90;;;8.00;;
22030;SDS011;11179;52.106;21.024;2023-09-19T14:22:11;14.23;;;8.40;;
22030;SDS011;11179;52.106;21.024;2023-09-19T14:24:36;18.10;;;9.37;;
22030;SDS011;11179;52.106;21.024;2023-09-19T14:27:02;14.20;;;7.70;;
22030;SDS011;11179;52.106;21.024;2023-09-19T14:29:49;14.27;;;8.30;;
22030;SDS011;11179;52.106;21.024;2023-09-19T14:32:28;13.80;;;8.20;;
22030;SDS011;11179;52.106;21.024;2023-09-19T14:34:58;12.93;;;7.03;;
22030;SDS011;11179;52.106;21.024;2023-09-19T14:37:26;13.90;;;7.43;;
22030;SDS011;11179;52.106;21.024;2023-09-19T14:39:53;22.03;;;8.07;;
22030;SDS011;11179;52.106;21.024;2023-09-19T14:42:19;13.97;;;7.33;;
22030;SDS011;11179;52.106;21.024;2023-09-19T14:44:48;15.10;;;7.50;;
22030;SDS011;11179;52.106;21.024;2023-09-19T14:47:15;15.20;;;7.87;;
22030;SDS011;11179;52.106;21.024;2023-09-19T14:49:44;20.37;;;8.00;;
22030;SDS011;11179;52.106;21.024;2023-09-19T14:52:11;16.50;;;8.37;;
22030;SDS011;11179;52.106;21.024;2023-09-19T14:54:40;15.50;;;8.03;;
22030;SDS011;11179;52.106;21.024;2023-09-19T14:57:07;14.07;;;7.47;;
22030;SDS011;11179;52.106;21.024;2023-09-19T14:59:36;14.63;;;7.57;;
22030;SDS011;11179;52.106;21.024;2023-09-19T15:02:07;14.37;;;7.50;;
22030;SDS011;11179;52.106;21.024;2023-09-19T15:04:35;11.67;;;6.90;;
22030;SDS011;11179;52.106;21.024;2023-09-19T15:07:13;22.03;;;8.77;;
22030;SDS011;11179;52.106;21.024;2023-09-19T15:10:21;15.10;;;6.93;;
22030;SDS011;11179;52.106;21.024;2023-09-19T15:12:49;13.00;;;7.50;;
22030;SDS011;11179;52.106;21.024;2023-09-19T15:15:26;12.00;;;6.90;;
22030;SDS011;11179;52.106;21.024;2023-09-19T15:17:59;11.40;;;6.70;;
22030;SDS011;11179;52.106;21.024;2023-09-19T15:23:06;14.10;;;7.37;;
22030;SDS011;11179;52.106;21.024;2023-09-19T15:29:09;13.90;;;7.37;;
22030;SDS011;11179;52.106;21.024;2023-09-19T15:31:44;13.13;;;7.30;;
22030;SDS011;11179;52.106;21.024;2023-09-19T15:34:29;11.93;;;6.73;;
22030;SDS011;11179;52.106;21.024;2023-09-19T15:36:59;13.57;;;6.77;;
22030;SDS011;11179;52.106;21.024;2023-09-19T15:39:35;17.03;;;6.97;;
22030;SDS011;11179;52.106;21.024;2023-09-19T15:42:16;11.77;;;7.20;;
22030;SDS011;11179;52.106;21.024;2023-09-19T15:45:08;15.37;;;6.37;;
22030;SDS011;11179;52.106;21.024;2023-09-19T15:48:01;13.23;;;6.30;;
22030;SDS011;11179;52.106;21.024;2023-09-19T15:50:48;11.60;;;5.80;;
22030;SDS011;11179;52.106;21.024;2023-09-19T15:53:25;14.33;;;6.67;;
22030;SDS011;11179;52.106;21.024;2023-09-19T15:56:00;11.90;;;6.23;;
22030;SDS011;11179;52.106;21.024;2023-09-19T15:58:37;14.83;;;6.00;;
22030;SDS011;11179;52.106;21.024;2023-09-19T16:04:47;13.77;;;6.60;;
22030;SDS011;11179;52.106;21.024;2023-09-19T16:07:20;12.30;;;6.20;;
22030;SDS011;11179;52.106;21.024;2023-09-19T16:10:43;12.00;;;6.23;;
22030;SDS011;11179;52.106;21.024;2023-09-19T16:13:23;12.73;;;6.40;;
22030;SDS011;11179;52.106;21.024;2023-09-19T16:15:56;10.07;;;6.73;;
22030;SDS011;11179;52.106;21.024;2023-09-19T16:18:44;15.13;;;5.93;;
22030;SDS011;11179;52.106;21.024;2023-09-19T16:21:28;12.90;;;6.70;;
22030;SDS011;11179;52.106;21.024;2023-09-19T16:24:21;15.70;;;6.63;;
22030;SDS011;11179;52.106;21.024;2023-09-19T16:26:50;10.27;;;6.03;;
22030;SDS011;11179;52.106;21.024;2023-09-19T16:29:22;9.53;;;5.80;;
22030;SDS011;11179;52.106;21.024;2023-09-19T16:31:51;11.80;;;6.47;;
22030;SDS011;11179;52.106;21.024;2023-09-19T16:34:38;13.00;;;7.10;;
22030;SDS011;11179;52.106;21.024;2023-09-19T16:37:24;10.70;;;6.67;;
22030;SDS011;11179;52.106;21.024;2023-09-19T16:39:54;17.60;;;8.17;;
22030;SDS011;11179;52.106;21.024;2023-09-19T16:42:35;14.70;;;7.10;;
22030;SDS011;11179;52.106;21.024;2023-09-19T16:45:09;14.07;;;6.40;;
22030;SDS011;11179;52.106;21.024;2023-09-19T16:48:15;15.63;;;6.77;;
22030;SDS011;11179;52.106;21.024;2023-09-19T16:54:05;11.03;;;6.80;;
22030;SDS011;11179;52.106;21.024;2023-09-19T16:57:01;9.97;;;6.07;;
22030;SDS011;11179;52.106;21.024;2023-09-19T16:59:52;9.30;;;6.00;;
22030;SDS011;11179;52.106;21.024;2023-09-19T17:05:38;11.40;;;6.50;;
22030;SDS011;11179;52.106;21.024;2023-09-19T17:08:34;12.10;;;6.50;;
22030;SDS011;11179;52.106;21.024;2023-09-19T17:13:58;10.70;;;6.13;;
22030;SDS011;11179;52.106;21.024;2023-09-19T17:20:28;15.07;;;7.13;;
22030;SDS011;11179;52.106;21.024;2023-09-19T17:23:26;14.17;;;4.90;;
22030;SDS011;11179;52.106;21.024;2023-09-19T17:26:15;10.90;;;4.30;;
22030;SDS011;11179;52.106;21.024;2023-09-19T17:29:10;11.60;;;4.53;;
22030;SDS011;11179;52.106;21.024;2023-09-19T17:31:47;10.40;;;5.30;;
22030;SDS011;11179;52.106;21.024;2023-09-19T17:34:28;8.63;;;4.10;;
22030;SDS011;11179;52.106;21.024;2023-09-19T17:37:19;8.03;;;3.63;;
22030;SDS011;11179;52.106;21.024;2023-09-19T17:39:58;8.83;;;4.30;;
22030;SDS011;11179;52.106;21.024;2023-09-19T17:42:38;8.10;;;3.90;;
22030;SDS011;11179;52.106;21.024;2023-09-19T17:45:13;7.70;;;3.60;;
22030;SDS011;11179;52.106;21.024;2023-09-19T17:47:57;8.00;;;3.57;;
22030;SDS011;11179;52.106;21.024;2023-09-19T17:50:26;14.63;;;3.77;;
22030;SDS011;11179;52.106;21.024;2023-09-19T17:53:06;7.53;;;3.50;;
22030;SDS011;11179;52.106;21.024;2023-09-19T17:55:40;10.27;;;4.20;;
22030;SDS011;11179;52.106;21.024;2023-09-19T17:58:19;12.13;;;3.63;;
22030;SDS011;11179;52.106;21.024;2023-09-19T18:00:45;10.40;;;3.90;;
22030;SDS011;11179;52.106;21.024;2023-09-19T18:03:13;9.00;;;3.67;;
22030;SDS011;11179;52.106;21.024;2023-09-19T18:05:45;9.60;;;4.07;;
22030;SDS011;11179;52.106;21.024;2023-09-19T18:08:21;9.80;;;3.47;;
22030;SDS011;11179;52.106;21.024;2023-09-19T18:10:49;11.00;;;3.40;;
22030;SDS011;11179;52.106;21.024;2023-09-19T18:13:23;7.77;;;3.33;;
22030;SDS011;11179;52.106;21.024;2023-09-19T18:15:57;11.67;;;3.60;;
22030;SDS011;11179;52.106;21.024;2023-09-19T18:18:36;10.87;;;3.70;;
22030;SDS011;11179;52.106;21.024;2023-09-19T18:21:02;9.87;;;3.50;;
22030;SDS011;11179;52.106;21.024;2023-09-19T18:23:32;8.07;;;3.63;;
22030;SDS011;11179;52.106;21.024;2023-09-19T18:26:07;8.63;;;3.57;;